Time;durP1;ratioP1;P1;durP2;ratioP2;P2;SDS_P1;SDS_P2;PMS_P1;PMS_P2;Temp;Humidity;BMP_temperature;BMP_pressure;BME280_temperature;BME280_humidity;BME280_pressure;Samples;Min_cycle;Max_cycle;Signal;HPM_P1;HPM_P2
2022/03/08 00:01:01;;;;;;;7.90;5.10;;;-2.30;96.30;;;;;;4957315;28;20475;-76
2022/03/08 00:03:27;;;;;;;6.20;4.57;;;-2.40;96.30;;;;;;4957242;29;20171;-76
2022/03/08 00:05:53;;;;;;;4.93;4.23;;;-2.60;96.30;;;;;;4940114;29;20663;-77
2022/03/08 00:08:19;;;;;;;7.27;5.30;;;-2.60;96.30;;;;;;4939819;29;20418;-78
2022/03/08 00:10:45;;;;;;;6.23;5.03;;;-2.60;96.30;;;;;;4939948;29;20285;-77
2022/03/08 00:13:10;;;;;;;6.40;5.17;;;-2.40;96.30;;;;;;4939979;29;20177;-76
2022/03/08 00:15:36;;;;;;;7.33;5.23;;;-2.40;96.30;;;;;;4957116;29;20222;-77
2022/03/08 00:18:02;;;;;;;12.30;5.20;;;-2.40;96.30;;;;;;4956877;29;20207;-78
2022/03/08 00:20:27;;;;;;;9.53;5.57;;;-2.40;96.30;;;;;;4957065;28;20653;-78
2022/03/08 00:22:53;;;;;;;8.70;5.63;;;-2.30;96.30;;;;;;4957109;29;20422;-77
2022/03/08 00:25:19;;;;;;;13.60;5.27;;;-2.40;96.30;;;;;;4939754;29;20513;-77
2022/03/08 00:27:47;;;;;;;10.57;5.37;;;-2.30;96.30;;;;;;4956666;29;20422;-76
2022/03/08 00:30:18;;;;;;;8.07;5.13;;;-2.30;96.30;;;;;;4956768;29;20273;-78
2022/03/08 00:32:44;;;;;;;13.70;4.53;;;-2.30;96.30;;;;;;4942654;29;20433;-78
2022/03/08 00:35:11;;;;;;;8.13;5.67;;;-2.20;96.30;;;;;;4947478;29;21095;-76
2022/03/08 00:37:37;;;;;;;8.20;4.87;;;-2.30;96.30;;;;;;4965460;29;20405;-77
2022/03/08 00:40:05;;;;;;;7.70;5.43;;;-2.40;96.30;;;;;;4957596;29;20419;-77
2022/03/08 00:42:30;;;;;;;9.33;5.77;;;-2.50;96.30;;;;;;4956864;28;20422;-77
2022/03/08 00:44:56;;;;;;;7.90;5.37;;;-2.70;96.30;;;;;;4939305;29;20403;-78
2022/03/08 00:47:21;;;;;;;13.33;5.07;;;-2.80;96.30;;;;;;4956588;29;20732;-76
2022/03/08 00:49:47;;;;;;;8.80;5.50;;;-2.90;96.30;;;;;;4939103;29;20207;-76
2022/03/08 00:52:12;;;;;;;10.83;5.30;;;-3.10;96.30;;;;;;4956316;28;20205;-77
2022/03/08 00:54:38;;;;;;;7.87;4.57;;;-3.20;96.30;;;;;;4939297;29;20178;-77
2022/03/08 00:57:04;;;;;;;8.00;5.77;;;-3.30;96.30;;;;;;4939148;29;20181;-77
2022/03/08 00:59:30;;;;;;;8.30;5.77;;;-3.40;96.30;;;;;;4956210;29;20175;-76
2022/03/08 05:00:27;;;;;;;8.50;5.90;;;-5.80;96.30;;;;;;5903883;23;20415;-77
2022/03/08 05:02:52;;;;;;;25.33;13.20;;;-5.90;96.30;;;;;;4977527;28;20429;-77
2022/03/08 05:05:18;;;;;;;25.73;13.30;;;-5.80;96.30;;;;;;4993834;28;20268;-77
2022/03/08 05:07:43;;;;;;;18.13;10.20;;;-5.80;96.30;;;;;;4994528;28;20193;-76
2022/03/08 05:10:11;;;;;;;14.37;8.10;;;-5.90;96.30;;;;;;4994682;28;20292;-77
2022/03/08 05:12:37;;;;;;;13.00;6.90;;;-5.90;96.30;;;;;;4975599;28;20178;-77
2022/03/08 05:15:07;;;;;;;9.30;6.23;;;-6.00;96.30;;;;;;4975496;28;21086;-77
2022/03/08 05:17:33;;;;;;;8.37;6.07;;;-6.00;96.30;;;;;;4986160;28;20449;-78
2022/03/08 05:19:58;;;;;;;18.53;7.73;;;-5.90;96.30;;;;;;4986183;28;20550;-77
2022/03/08 05:22:24;;;;;;;11.40;6.20;;;-5.90;96.30;;;;;;4957623;28;20270;-78
2022/03/08 05:24:49;;;;;;;9.80;6.63;;;-5.90;96.30;;;;;;4975865;28;20182;-77
2022/03/08 05:27:15;;;;;;;26.00;12.57;;;-6.00;96.30;;;;;;4976088;28;20190;-77
2022/03/08 05:29:40;;;;;;;89.20;35.57;;;-6.00;96.30;;;;;;4975368;28;20182;-77
2022/03/08 06:38:16;;;;;;;10.50;6.20;;;5.00;96.30;;;;;;4973863;28;20389;-76
2022/03/08 06:40:42;;;;;;;11.13;6.80;;;5.20;95.70;;;;;;4956688;28;20452;-77
2022/03/08 06:43:07;;;;;;;11.00;6.40;;;5.40;93.80;;;;;;4974332;28;20406;-76
2022/03/08 06:45:33;;;;;;;9.70;6.03;;;5.00;94.80;;;;;;4973246;28;20651;-76
2022/03/08 06:47:58;;;;;;;10.47;6.67;;;4.70;96.00;;;;;;4954032;29;20179;-78
2022/03/08 07:05:56;;;;;;;13.20;7.40;;;7.40;86.40;;;;;;5055669;23;20497;-77
2022/03/08 07:08:22;;;;;;;9.80;7.20;;;7.20;87.10;;;;;;4955622;28;20471;-77
2022/03/08 07:10:47;;;;;;;10.30;5.90;;;6.80;88.60;;;;;;4957139;28;20325;-80
2022/03/08 07:13:15;;;;;;;9.20;6.37;;;6.90;87.70;;;;;;4951346;28;20254;-77
2022/03/08 07:15:40;;;;;;;11.33;6.50;;;7.70;86.20;;;;;;4936808;29;20175;-77
2022/03/08 07:18:06;;;;;;;9.97;6.20;;;7.70;84.90;;;;;;4956240;28;20475;-78
2022/03/08 07:20:31;;;;;;;10.07;6.50;;;7.50;86.20;;;;;;4954203;28;20542;-77
2022/03/08 07:22:57;;;;;;;8.40;6.30;;;8.10;86.30;;;;;;4953956;28;20178;-77
2022/03/08 07:25:23;;;;;;;10.73;6.33;;;8.20;84.10;;;;;;4943950;29;20679;-77
2022/03/08 07:27:48;;;;;;;11.27;6.60;;;8.70;83.00;;;;;;4936563;29;20198;-79
2022/03/08 07:30:13;;;;;;;11.57;6.97;;;8.90;82.50;;;;;;4955358;28;20285;-80
2022/03/08 07:32:39;;;;;;;7.83;6.13;;;7.80;84.00;;;;;;4971731;28;20201;-78
2022/03/08 07:35:06;;;;;;;11.00;6.80;;;7.00;85.90;;;;;;4967256;28;20179;-77
2022/03/08 07:37:38;;;;;;;9.70;6.90;;;7.30;87.70;;;;;;4967749;28;20208;-78
2022/03/08 07:40:07;;;;;;;9.53;5.70;;;8.00;86.90;;;;;;4953395;29;20418;-77
2022/03/08 07:42:32;;;;;;;8.37;6.43;;;8.20;85.50;;;;;;4935636;29;20442;-78
2022/03/08 07:44:58;;;;;;;9.23;6.40;;;8.30;83.10;;;;;;4957778;28;20416;-78
2022/03/08 07:47:23;;;;;;;8.60;5.50;;;7.70;84.90;;;;;;4949205;28;20221;-79
2022/03/08 07:49:49;;;;;;;7.27;5.43;;;7.40;84.50;;;;;;4971374;28;20200;-76
2022/03/08 07:52:15;;;;;;;8.97;6.27;;;6.10;88.30;;;;;;4965337;28;20198;-77
2022/03/08 07:54:40;;;;;;;8.43;6.27;;;4.70;92.80;;;;;;4967267;28;20233;-76
2022/03/08 07:57:06;;;;;;;11.33;6.10;;;3.80;96.30;;;;;;4962553;28;20197;-76
2022/03/08 07:59:31;;;;;;;9.67;6.10;;;2.90;96.30;;;;;;4965604;28;20185;-76
2022/03/08 08:01:58;;;;;;;12.07;6.97;;;2.30;96.30;;;;;;4971746;28;20281;-77
2022/03/08 08:04:23;;;;;;;10.33;7.10;;;1.80;96.30;;;;;;4953605;28;20684;-77
2022/03/08 08:06:50;;;;;;;15.00;7.60;;;1.50;96.30;;;;;;4942553;28;20492;-77
2022/03/08 08:09:15;;;;;;;11.53;7.17;;;1.20;96.30;;;;;;4971802;28;20174;-76
2022/03/08 08:11:41;;;;;;;9.80;6.83;;;1.20;96.30;;;;;;4969162;28;21033;-76
2022/03/08 08:14:07;;;;;;;12.07;7.17;;;1.10;96.30;;;;;;4973899;28;20252;-76
2022/03/08 08:16:32;;;;;;;11.53;6.33;;;0.90;96.30;;;;;;4964669;28;20186;-76
2022/03/08 08:19:00;;;;;;;11.57;6.60;;;0.90;96.30;;;;;;4938181;28;20182;-79
2022/03/08 08:21:26;;;;;;;10.90;6.90;;;0.90;96.30;;;;;;4959087;28;20248;-76
2022/03/08 08:23:52;;;;;;;9.07;7.03;;;0.80;96.30;;;;;;4965043;28;20425;-78
2022/03/08 08:26:17;;;;;;;16.40;8.20;;;0.70;96.30;;;;;;4945679;29;20191;-80
2022/03/08 08:28:43;;;;;;;11.37;7.17;;;0.80;96.30;;;;;;4962337;29;20186;-78
2022/03/08 08:31:08;;;;;;;13.50;6.97;;;0.70;96.30;;;;;;4962771;29;20222;-78
2022/03/08 08:33:34;;;;;;;9.97;7.00;;;0.70;96.30;;;;;;4959352;28;20186;-77
2022/03/08 08:36:00;;;;;;;15.13;8.50;;;0.80;96.30;;;;;;4943790;28;20989;-78
2022/03/08 08:38:26;;;;;;;9.20;6.33;;;0.80;96.30;;;;;;4953574;28;20482;-78
2022/03/08 08:40:52;;;;;;;9.00;6.90;;;0.90;96.30;;;;;;4981792;28;20429;-78
2022/03/08 08:43:17;;;;;;;11.13;8.07;;;0.90;96.30;;;;;;4949860;28;20206;-78
2022/03/08 08:45:43;;;;;;;13.00;7.77;;;0.90;96.30;;;;;;4982699;28;20185;-79
2022/03/08 08:48:09;;;;;;;9.63;7.80;;;1.00;96.30;;;;;;4981870;28;20190;-78
2022/03/08 08:50:36;;;;;;;12.93;7.13;;;1.10;96.30;;;;;;4962960;28;20210;-78
2022/03/08 08:53:02;;;;;;;8.10;6.50;;;1.10;96.30;;;;;;4949917;28;20178;-80
2022/03/08 08:55:28;;;;;;;11.73;7.57;;;1.20;96.30;;;;;;4975435;28;20437;-80
2022/03/08 08:57:54;;;;;;;12.40;8.03;;;1.30;96.30;;;;;;4980562;28;20415;-80
2022/03/08 09:00:20;;;;;;;10.47;7.80;;;1.30;96.30;;;;;;4956824;28;20424;-80
2022/03/08 09:02:45;;;;;;;13.13;7.53;;;1.40;96.30;;;;;;4972434;28;20190;-80
2022/03/08 09:05:12;;;;;;;11.57;7.77;;;1.80;96.30;;;;;;4965623;29;20205;-78
2022/03/08 09:07:38;;;;;;;11.20;8.30;;;2.70;96.30;;;;;;4969248;28;20183;-78
2022/03/08 09:10:05;;;;;;;12.43;8.00;;;4.30;96.30;;;;;;4973331;28;20470;-79
2022/03/08 09:12:30;;;;;;;9.90;6.40;;;5.70;96.30;;;;;;4984971;28;20254;-80
2022/03/08 09:14:56;;;;;;;18.90;6.13;;;6.80;96.30;;;;;;4986210;28;20824;-79
2022/03/08 09:17:21;;;;;;;6.13;4.43;;;7.50;93.90;;;;;;4957338;29;20179;-78
2022/03/08 09:19:47;;;;;;;6.27;4.80;;;7.50;92.60;;;;;;4966140;29;20182;-80
2022/03/08 09:22:13;;;;;;;9.90;5.10;;;8.10;91.50;;;;;;4968375;28;20203;-79
2022/03/08 09:24:39;;;;;;;12.57;4.87;;;8.20;90.10;;;;;;4958162;28;20208;-79
2022/03/08 09:27:05;;;;;;;14.60;5.37;;;8.90;88.30;;;;;;4974838;28;20484;-81
2022/03/08 09:29:31;;;;;;;7.10;5.60;;;8.90;87.00;;;;;;4971963;28;20175;-79
2022/03/08 09:31:57;;;;;;;9.33;6.13;;;8.80;88.30;;;;;;4954298;29;20214;-80
2022/03/08 09:34:22;;;;;;;6.63;5.10;;;9.00;87.20;;;;;;4958718;28;20179;-80
2022/03/08 09:36:48;;;;;;;7.07;5.50;;;9.60;86.90;;;;;;4954841;28;20183;-81
2022/03/08 09:39:14;;;;;;;7.80;6.20;;;10.20;84.90;;;;;;4939338;28;20175;-79
2022/03/08 09:41:41;;;;;;;7.30;5.50;;;9.90;85.80;;;;;;4961118;28;21265;-81
2022/03/08 09:44:12;;;;;;;8.70;5.47;;;10.10;84.20;;;;;;4976622;28;20182;-80
2022/03/08 09:46:38;;;;;;;6.47;4.97;;;9.90;85.80;;;;;;4978043;28;20425;-81
2022/03/08 09:49:04;;;;;;;6.80;5.50;;;9.70;85.70;;;;;;4978118;28;20833;-81
2022/03/08 09:51:29;;;;;;;6.67;5.63;;;9.50;86.70;;;;;;4979099;28;20499;-80
2022/03/08 09:53:55;;;;;;;10.17;5.77;;;9.50;85.80;;;;;;4979604;28;20265;-80
2022/03/08 09:56:21;;;;;;;6.30;5.07;;;10.20;85.30;;;;;;4979027;28;20596;-80
2022/03/08 09:58:47;;;;;;;8.70;5.10;;;10.40;84.50;;;;;;4967791;28;20702;-79
2022/03/08 10:01:13;;;;;;;5.53;4.97;;;10.20;84.50;;;;;;4984279;28;20779;-79
2022/03/08 10:03:41;;;;;;;6.47;5.30;;;10.00;85.50;;;;;;4982062;28;20417;-80
2022/03/08 10:06:08;;;;;;;6.90;5.30;;;9.90;84.80;;;;;;4963696;29;20190;-79
2022/03/08 10:08:34;;;;;;;7.00;4.90;;;9.20;88.30;;;;;;4971568;28;20462;-80
2022/03/08 10:11:02;;;;;;;3.93;3.00;;;9.20;87.50;;;;;;4973507;28;20465;-79
2022/03/08 10:13:32;;;;;;;7.13;4.63;;;8.90;85.40;;;;;;4957976;28;20182;-80
2022/03/08 10:16:13;;;;;;;6.40;4.20;;;8.70;88.00;;;;;;4951276;28;20460;-79
2022/03/08 10:18:42;;;;;;;5.67;4.07;;;8.40;90.00;;;;;;4975125;28;20417;-80
2022/03/08 10:21:27;;;;;;;4.70;3.30;;;8.40;91.70;;;;;;4939959;29;20517;-80
2022/03/08 10:23:53;;;;;;;3.10;2.57;;;7.80;92.00;;;;;;4955776;29;20421;-80
2022/03/08 10:26:20;;;;;;;3.93;3.00;;;7.40;90.60;;;;;;4966353;28;20418;-79
2022/03/08 10:28:54;;;;;;;4.53;3.50;;;7.80;89.70;;;;;;4951925;28;20556;-80
2022/03/08 10:31:20;;;;;;;5.60;2.80;;;7.70;85.30;;;;;;4943073;29;21018;-79
2022/03/08 10:33:46;;;;;;;3.53;2.57;;;7.70;86.90;;;;;;4944340;29;20415;-80
2022/03/08 10:36:18;;;;;;;6.10;3.10;;;8.20;85.90;;;;;;4939405;28;20422;-79
2022/03/08 10:39:06;;;;;;;1.80;1.50;;;8.10;85.40;;;;;;4961065;28;20857;-79
2022/03/08 10:41:31;;;;;;;3.00;2.03;;;7.80;78.90;;;;;;4963479;28;20446;-80
2022/03/08 10:43:57;;;;;;;4.43;2.20;;;6.90;79.00;;;;;;4958659;29;20446;-80
2022/03/08 10:46:24;;;;;;;2.70;2.10;;;6.90;80.60;;;;;;4956950;28;20194;-78
2022/03/08 10:48:51;;;;;;;3.30;2.13;;;7.00;83.10;;;;;;4953127;28;20214;-79
2022/03/08 10:51:18;;;;;;;3.07;2.27;;;;;;;;;;4963855;28;20521;-77
2022/03/08 10:53:43;;;;;;;3.30;2.53;;;7.00;85.90;;;;;;4961798;28;20911;-80
2022/03/08 10:56:09;;;;;;;4.50;2.97;;;6.10;87.60;;;;;;4959332;29;20415;-78
2022/03/08 10:58:49;;;;;;;3.30;2.70;;;6.40;89.00;;;;;;4957836;28;20430;-80
2022/03/08 11:01:15;;;;;;;2.97;2.47;;;6.70;87.10;;;;;;4971388;28;20453;-80
2022/03/08 11:03:55;;;;;;;3.80;2.80;;;6.90;86.80;;;;;;4962255;28;20431;-80
2022/03/08 11:06:21;;;;;;;3.17;2.07;;;6.90;85.50;;;;;;4960937;28;20465;-80
2022/03/08 11:08:47;;;;;;;5.87;3.10;;;7.00;85.60;;;;;;4963507;28;20429;-80
2022/03/08 11:11:13;;;;;;;4.53;2.77;;;7.30;86.40;;;;;;4978424;28;21166;-80
2022/03/08 11:13:39;;;;;;;3.07;2.60;;;;;;;;;;4973981;28;20649;-80
2022/03/08 11:16:06;;;;;;;2.50;2.27;;;7.60;84.10;;;;;;4963885;28;20418;-78
2022/03/08 11:18:33;;;;;;;2.97;2.67;;;7.60;84.60;;;;;;4960354;28;20430;-79
2022/03/08 11:20:59;;;;;;;4.13;2.33;;;7.50;84.50;;;;;;4974763;28;20473;-80
2022/03/08 11:23:26;;;;;;;5.93;2.70;;;8.10;86.80;;;;;;4952450;28;20967;-79
2022/03/08 11:25:52;;;;;;;4.00;2.10;;;7.40;80.80;;;;;;4949547;29;20490;-78
2022/03/08 11:28:20;;;;;;;3.93;2.73;;;7.50;82.50;;;;;;4939682;29;20430;-80
2022/03/08 11:30:57;;;;;;;3.73;1.80;;;7.50;82.70;;;;;;4958050;29;20689;-79
2022/03/08 11:33:36;;;;;;;2.80;1.40;;;7.40;82.30;;;;;;4960224;29;20884;-79
2022/03/08 11:36:05;;;;;;;4.53;1.90;;;7.50;82.30;;;;;;4959174;29;21226;-78
2022/03/08 11:38:30;;;;;;;1.60;1.43;;;7.60;83.10;;;;;;4962613;28;20431;-79
2022/03/08 11:40:58;;;;;;;2.03;1.40;;;7.70;85.30;;;;;;4956100;28;20501;-79
2022/03/08 11:43:41;;;;;;;2.70;1.77;;;8.20;84.40;;;;;;4955569;28;20281;-79
2022/03/08 11:46:18;;;;;;;1.87;1.43;;;7.70;79.70;;;;;;4957972;28;20453;-78
2022/03/08 11:49:19;;;;;;;4.40;1.50;;;7.80;78.80;;;;;;4945265;28;20513;-76
2022/03/08 11:52:09;;;;;;;2.33;1.53;;;7.70;77.20;;;;;;4924990;28;20492;-77
2022/03/08 11:54:36;;;;;;;2.23;1.47;;;7.40;79.40;;;;;;4962861;28;20664;-78
2022/03/08 11:57:01;;;;;;;1.93;1.20;;;7.20;80.50;;;;;;4945812;28;20940;-76
2022/03/08 11:59:27;;;;;;;1.53;1.30;;;7.20;78.10;;;;;;4969230;28;20485;-79
2022/03/08 12:01:54;;;;;;;1.70;1.50;;;7.10;78.30;;;;;;4976763;28;20272;-77
2022/03/08 12:04:20;;;;;;;2.30;1.30;;;7.10;78.10;;;;;;4942436;29;20186;-78
2022/03/08 12:06:53;;;;;;;8.50;1.80;;;7.20;78.20;;;;;;4959803;29;20414;-77
2022/03/08 12:09:22;;;;;;;2.30;1.67;;;7.20;78.00;;;;;;4958162;28;20429;-79
2022/03/08 12:11:48;;;;;;;3.23;2.07;;;;;;;;;;4979317;28;20461;-77
2022/03/08 12:14:19;;;;;;;2.33;1.97;;;7.20;80.00;;;;;;4947454;29;20421;-78
2022/03/08 12:16:50;;;;;;;3.00;2.20;;;7.30;80.50;;;;;;4961008;29;20935;-79
2022/03/08 12:19:33;;;;;;;3.67;1.90;;;7.20;82.30;;;;;;4960843;29;20409;-77
2022/03/08 12:21:59;;;;;;;2.90;2.10;;;7.40;81.60;;;;;;4965457;28;20438;-78
2022/03/08 12:24:26;;;;;;;5.87;2.40;;;7.40;81.20;;;;;;4961127;28;20426;-78
2022/03/08 12:26:52;;;;;;;3.13;2.00;;;7.50;83.50;;;;;;4979552;28;20421;-79
2022/03/08 12:29:29;;;;;;;3.77;2.23;;;6.90;84.60;;;;;;4945344;29;20431;-78
2022/03/08 12:31:58;;;;;;;7.50;2.30;;;6.90;84.60;;;;;;4958805;29;20465;-79
2022/03/08 12:34:33;;;;;;;1.90;1.50;;;7.10;82.90;;;;;;4958705;29;20414;-79
2022/03/08 12:37:26;;;;;;;2.53;2.00;;;7.20;81.40;;;;;;4941738;29;21018;-78
2022/03/08 12:40:07;;;;;;;2.80;1.90;;;7.40;82.00;;;;;;4959076;28;20428;-79
2022/03/08 12:42:34;;;;;;;3.70;1.90;;;7.10;81.40;;;;;;4960336;28;20554;-78
2022/03/08 12:45:02;;;;;;;3.13;1.63;;;7.10;79.20;;;;;;4943847;29;20438;-78
2022/03/08 12:47:31;;;;;;;1.87;1.30;;;6.90;79.10;;;;;;4943033;29;20414;-78
2022/03/08 12:50:01;;;;;;;1.60;1.30;;;7.40;78.50;;;;;;4955014;28;20476;-77
2022/03/08 12:52:29;;;;;;;4.00;3.60;;;7.80;76.60;;;;;;4957352;28;20444;-78
2022/03/08 12:54:56;;;;;;;1.67;1.27;;;7.80;75.70;;;;;;4964413;28;20422;-76
2022/03/08 12:57:23;;;;;;;2.27;1.30;;;7.70;76.20;;;;;;4962478;28;20432;-77
2022/03/08 12:59:52;;;;;;;1.73;1.43;;;7.70;75.70;;;;;;4957114;28;20482;-76
2022/03/08 13:12:39;;;;;;;2.57;1.50;;;7.60;73.70;;;;;;5152216;23;20482;-80
2022/03/08 13:15:16;;;;;;;3.47;1.50;;;7.80;73.40;;;;;;4947253;29;20550;-79
2022/03/08 13:17:44;;;;;;;1.10;0.90;;;7.50;74.20;;;;;;4941445;29;20180;-80
2022/03/08 13:20:23;;;;;;;2.47;1.30;;;7.60;72.90;;;;;;4941623;29;20427;-78
2022/03/08 13:22:49;;;;;;;2.30;1.30;;;8.00;72.90;;;;;;4921283;29;20413;-79
2022/03/08 13:25:15;;;;;;;1.60;1.10;;;8.50;71.90;;;;;;4921113;29;20446;-78
2022/03/08 13:28:13;;;;;;;1.47;1.00;;;8.20;71.90;;;;;;4920601;29;20545;-77
2022/03/08 13:30:47;;;;;;;1.80;1.37;;;8.50;73.40;;;;;;4922244;29;20832;-78
2022/03/08 13:33:20;;;;;;;2.80;1.30;;;8.40;73.40;;;;;;4922276;29;20922;-79
2022/03/08 13:35:52;;;;;;;3.20;1.77;;;8.50;74.50;;;;;;4921797;29;20432;-79
2022/03/08 13:38:20;;;;;;;1.90;1.50;;;8.40;74.20;;;;;;4932645;29;20439;-78
2022/03/08 13:40:46;;;;;;;3.03;1.57;;;8.50;77.60;;;;;;4931979;29;20463;-79
2022/03/08 13:43:14;;;;;;;1.87;1.67;;;8.10;72.40;;;;;;4911489;29;20431;-79
2022/03/08 13:45:41;;;;;;;2.77;1.40;;;8.20;72.70;;;;;;4928544;29;20808;-78
2022/03/08 13:48:07;;;;;;;1.80;1.43;;;8.50;72.60;;;;;;4943257;29;20480;-79
2022/03/08 13:50:33;;;;;;;2.17;1.60;;;8.30;73.70;;;;;;4925222;29;20565;-77
2022/03/08 13:53:11;;;;;;;4.60;2.17;;;8.50;74.10;;;;;;4938808;29;20452;-79
2022/03/08 13:55:38;;;;;;;4.40;1.67;;;8.20;72.00;;;;;;4923187;29;20232;-79
2022/03/08 13:58:18;;;;;;;2.47;1.40;;;8.20;72.70;;;;;;4905531;29;20824;-77
2022/03/08 14:00:45;;;;;;;5.13;1.30;;;8.50;72.20;;;;;;4929873;29;20487;-76
2022/03/08 14:03:12;;;;;;;1.97;1.27;;;8.80;72.60;;;;;;4920660;29;20771;-78
2022/03/08 14:05:54;;;;;;;1.80;1.33;;;8.30;71.90;;;;;;4922680;29;20421;-78
2022/03/08 14:08:34;;;;;;;3.77;1.60;;;8.10;72.80;;;;;;4921652;29;20447;-78
2022/03/08 14:11:24;;;;;;;3.00;1.40;;;8.20;73.60;;;;;;4917245;29;20479;-77
2022/03/08 14:13:51;;;;;;;3.10;1.67;;;8.20;71.50;;;;;;4926105;29;20431;-76
2022/03/08 14:16:17;;;;;;;1.97;1.57;;;8.40;73.70;;;;;;4934313;29;20415;-77
2022/03/08 14:18:53;;;;;;;2.23;1.43;;;8.30;74.30;;;;;;4925306;29;20426;-77
2022/03/08 14:21:26;;;;;;;3.63;1.40;;;8.30;73.20;;;;;;4920340;29;20451;-77
2022/03/08 14:23:52;;;;;;;2.30;1.47;;;8.00;72.60;;;;;;4920680;29;20427;-76
2022/03/08 14:26:22;;;;;;;3.50;1.37;;;8.30;72.30;;;;;;4923377;29;20431;-76
2022/03/08 14:29:01;;;;;;;4.40;1.50;;;8.20;73.30;;;;;;4930560;29;20472;-76
2022/03/08 14:31:37;;;;;;;1.37;1.13;;;8.20;74.50;;;;;;4932074;29;20530;-77
2022/03/08 14:34:13;;;;;;;2.43;1.50;;;8.10;73.30;;;;;;4924435;29;20426;-78
2022/03/08 14:36:51;;;;;;;4.10;1.60;;;7.80;71.30;;;;;;4933228;29;20475;-78
2022/03/08 14:39:23;;;;;;;2.70;1.40;;;7.80;71.50;;;;;;4933728;29;20894;-77
2022/03/08 14:41:57;;;;;;;2.83;1.60;;;7.90;72.30;;;;;;4937066;29;20555;-77
2022/03/08 14:44:24;;;;;;;5.43;1.70;;;8.10;72.30;;;;;;4937102;29;20408;-76
2022/03/08 14:46:49;;;;;;;2.23;1.70;;;8.00;70.50;;;;;;4936660;29;20423;-78
2022/03/08 14:49:15;;;;;;;4.40;1.80;;;8.00;72.80;;;;;;4942700;29;20510;-77
2022/03/08 14:51:41;;;;;;;3.50;1.80;;;8.00;73.10;;;;;;4946016;29;20219;-76
2022/03/08 14:54:07;;;;;;;4.47;2.00;;;8.00;72.90;;;;;;4919445;29;20187;-76
2022/03/08 14:56:32;;;;;;;2.93;1.73;;;8.20;74.70;;;;;;4949336;29;20783;-76
2022/03/08 14:58:58;;;;;;;5.50;2.00;;;8.00;73.00;;;;;;4947229;29;20175;-77
2022/03/08 15:01:23;;;;;;;2.20;1.80;;;8.00;73.40;;;;;;4942741;29;20545;-77
2022/03/08 15:03:49;;;;;;;2.67;1.50;;;7.80;73.90;;;;;;4928167;29;20190;-77
2022/03/08 15:06:14;;;;;;;4.63;2.70;;;7.80;74.00;;;;;;4927792;29;20179;-77
2022/03/08 15:08:40;;;;;;;3.80;2.27;;;7.90;73.90;;;;;;4936145;29;20179;-79
2022/03/08 15:11:06;;;;;;;3.33;1.73;;;7.90;74.50;;;;;;4936350;29;20219;-74
2022/03/08 15:13:32;;;;;;;3.33;1.83;;;7.90;75.50;;;;;;4919698;29;20182;-77
2022/03/08 15:15:58;;;;;;;6.10;2.07;;;7.70;75.70;;;;;;4936084;29;20275;-76
2022/03/08 15:18:23;;;;;;;3.33;1.83;;;7.80;74.70;;;;;;4948824;29;20178;-77
2022/03/08 15:20:49;;;;;;;6.40;1.80;;;7.50;75.70;;;;;;4954981;29;20229;-76
2022/03/08 15:23:15;;;;;;;3.73;1.60;;;7.60;75.10;;;;;;4952324;29;20245;-76
2022/03/08 15:25:40;;;;;;;2.20;1.90;;;7.50;75.20;;;;;;4941101;29;20187;-76
2022/03/08 15:28:06;;;;;;;2.77;2.10;;;7.00;75.50;;;;;;4919703;29;20984;-76
2022/03/08 15:30:32;;;;;;;2.43;1.73;;;7.00;76.00;;;;;;4936055;29;20211;-78
2022/03/08 15:32:57;;;;;;;1.83;1.37;;;7.00;76.10;;;;;;4940157;29;20626;-76
2022/03/08 15:35:23;;;;;;;2.60;1.87;;;7.00;75.80;;;;;;4939581;29;20211;-77
2022/03/08 15:37:48;;;;;;;3.70;1.80;;;6.80;76.50;;;;;;4927160;29;20541;-78
2022/03/08 15:40:14;;;;;;;2.33;2.00;;;6.70;76.70;;;;;;4955134;29;20183;-79
2022/03/08 15:42:40;;;;;;;5.33;2.43;;;6.70;76.90;;;;;;4955350;29;20167;-78
2022/03/08 15:45:06;;;;;;;4.87;2.60;;;6.50;77.50;;;;;;4955110;29;20183;-79
2022/03/08 15:47:32;;;;;;;3.33;1.90;;;6.50;77.00;;;;;;4934954;29;20171;-78
2022/03/08 15:49:58;;;;;;;7.30;1.87;;;6.60;76.70;;;;;;4943140;29;20426;-79
2022/03/08 15:52:24;;;;;;;3.07;1.93;;;6.40;76.90;;;;;;4937577;29;20449;-78
2022/03/08 15:54:50;;;;;;;3.00;1.67;;;6.30;76.90;;;;;;4955159;29;20250;-77
2022/03/08 15:57:15;;;;;;;3.33;1.77;;;6.10;77.40;;;;;;4955346;29;20179;-78
2022/03/08 15:59:46;;;;;;;2.67;1.80;;;6.00;77.90;;;;;;4957290;29;20247;-81
2022/03/08 16:02:12;;;;;;;2.73;1.90;;;6.00;78.60;;;;;;4959546;29;20281;-81
2022/03/08 16:04:37;;;;;;;3.87;1.80;;;5.80;79.30;;;;;;4958205;29;20461;-81
2022/03/08 16:07:03;;;;;;;3.33;2.07;;;5.70;79.40;;;;;;4950152;29;20645;-79
2022/03/08 16:09:29;;;;;;;3.07;2.40;;;5.70;79.40;;;;;;4939720;29;20273;-81
2022/03/08 16:11:54;;;;;;;2.57;2.00;;;5.60;80.00;;;;;;4955184;29;21203;-81
2022/03/08 16:14:20;;;;;;;4.10;2.20;;;5.50;79.60;;;;;;4922004;29;20183;-80
2022/03/08 16:16:47;;;;;;;3.60;2.20;;;5.50;80.30;;;;;;4939822;29;20187;-81
2022/03/08 16:19:13;;;;;;;5.60;2.87;;;5.40;80.20;;;;;;4921644;29;20833;-81
2022/03/08 16:21:39;;;;;;;3.87;2.27;;;5.40;80.60;;;;;;4922156;29;20455;-81
2022/03/08 16:24:05;;;;;;;2.70;1.97;;;5.30;81.10;;;;;;4939178;29;20948;-79
2022/03/08 16:26:30;;;;;;;2.60;1.80;;;5.30;81.50;;;;;;4939437;29;20180;-81
2022/03/08 16:28:56;;;;;;;4.70;2.00;;;5.20;82.10;;;;;;4921409;29;20517;-81
2022/03/08 16:31:22;;;;;;;2.80;1.60;;;5.00;82.60;;;;;;4937806;29;20215;-81
2022/03/08 16:33:48;;;;;;;2.50;1.87;;;5.00;82.40;;;;;;4940833;29;20668;-81
2022/03/08 16:36:15;;;;;;;4.17;1.80;;;4.90;82.40;;;;;;4924721;29;20427;-80
2022/03/08 16:38:40;;;;;;;3.80;1.77;;;4.80;83.10;;;;;;4925527;29;20423;-81
2022/03/08 16:41:06;;;;;;;3.00;1.70;;;4.70;82.90;;;;;;4960738;29;20449;-81
2022/03/08 16:43:31;;;;;;;2.27;1.20;;;4.60;82.40;;;;;;4960508;29;20179;-80
2022/03/08 16:45:57;;;;;;;9.60;2.23;;;4.40;83.40;;;;;;4959887;29;20175;-81
2022/03/08 16:48:24;;;;;;;2.17;1.70;;;4.20;83.50;;;;;;4959231;29;20175;-81
2022/03/08 16:50:50;;;;;;;2.50;1.50;;;4.00;84.50;;;;;;4961325;29;20465;-80
2022/03/08 16:53:16;;;;;;;5.43;1.67;;;4.10;82.30;;;;;;4945425;29;20419;-78
2022/03/08 16:55:41;;;;;;;1.90;1.40;;;4.00;83.50;;;;;;4962838;29;20186;-80
2022/03/08 16:58:08;;;;;;;1.97;1.43;;;3.70;84.10;;;;;;4961935;29;20558;-81
2022/03/08 17:00:33;;;;;;;3.10;1.70;;;3.60;84.50;;;;;;4961596;29;20689;-80
2022/03/08 17:02:59;;;;;;;2.30;1.10;;;3.40;85.90;;;;;;4943409;29;20522;-81
2022/03/08 17:05:25;;;;;;;1.70;1.47;;;3.40;84.90;;;;;;4945017;29;20223;-80
2022/03/08 17:07:51;;;;;;;2.70;1.80;;;3.40;85.10;;;;;;4944440;29;20187;-81
2022/03/08 17:10:16;;;;;;;4.53;1.67;;;3.50;84.70;;;;;;4963007;29;20422;-79
2022/03/08 17:12:43;;;;;;;2.57;1.30;;;3.50;84.80;;;;;;4961405;29;20206;-79
2022/03/08 17:15:09;;;;;;;1.83;1.10;;;3.40;85.10;;;;;;4960517;29;20230;-80
2022/03/08 17:17:35;;;;;;;6.53;1.60;;;3.50;84.90;;;;;;4955004;29;20423;-79
2022/03/08 17:20:04;;;;;;;2.00;1.40;;;3.50;84.70;;;;;;4952751;29;20421;-77
2022/03/08 17:22:30;;;;;;;2.17;1.37;;;3.60;84.60;;;;;;4955215;29;20278;-78
2022/03/08 17:24:56;;;;;;;2.57;1.60;;;3.50;84.80;;;;;;4939114;29;20462;-77
2022/03/08 17:27:21;;;;;;;3.00;1.77;;;3.40;85.40;;;;;;4955805;29;20406;-77
2022/03/08 17:29:47;;;;;;;5.97;2.50;;;3.10;87.10;;;;;;4936494;29;20206;-78
2022/03/08 17:32:12;;;;;;;4.70;2.80;;;2.80;88.20;;;;;;4953648;29;20723;-77
2022/03/08 17:34:38;;;;;;;6.67;3.33;;;2.80;88.00;;;;;;4937493;29;20641;-77
2022/03/08 17:37:03;;;;;;;11.80;4.40;;;2.70;88.80;;;;;;4938661;29;20241;-78
2022/03/08 17:39:29;;;;;;;8.60;4.73;;;2.40;90.30;;;;;;4955376;29;20175;-76
2022/03/08 17:41:55;;;;;;;3.47;2.70;;;2.30;90.70;;;;;;4955734;29;20203;-76
2022/03/08 17:44:21;;;;;;;3.80;2.37;;;2.20;91.10;;;;;;4937589;29;20708;-76
2022/03/08 17:46:50;;;;;;;2.90;2.37;;;2.30;91.10;;;;;;4955735;29;20460;-76
2022/03/08 17:49:21;;;;;;;2.80;1.70;;;2.30;90.70;;;;;;4954990;29;20264;-75
2022/03/08 17:51:47;;;;;;;4.13;3.30;;;2.30;90.90;;;;;;4955387;29;20979;-76
2022/03/08 17:54:13;;;;;;;3.80;2.97;;;2.20;91.50;;;;;;4955127;29;20418;-76
2022/03/08 17:56:38;;;;;;;5.50;3.93;;;2.20;91.10;;;;;;4955518;29;20179;-76
2022/03/08 17:59:05;;;;;;;80.33;31.60;;;2.20;91.30;;;;;;4937921;29;20429;-77
2022/03/08 18:01:31;;;;;;;13.23;7.03;;;2.10;91.50;;;;;;4955279;29;20273;-76
2022/03/08 18:03:58;;;;;;;42.80;17.30;;;2.00;91.50;;;;;;4955216;29;20421;-77
2022/03/08 18:06:24;;;;;;;11.23;4.67;;;1.90;92.20;;;;;;4955286;29;20269;-77
2022/03/08 18:08:49;;;;;;;8.50;3.10;;;1.90;92.10;;;;;;4954336;29;20463;-78
2022/03/08 18:11:15;;;;;;;6.17;2.60;;;1.80;92.60;;;;;;4918720;29;20242;-77
2022/03/08 18:13:41;;;;;;;5.30;2.60;;;2.10;91.20;;;;;;4918878;29;20168;-77
2022/03/08 18:16:07;;;;;;;5.97;3.30;;;2.20;91.00;;;;;;4936229;29;20771;-78
2022/03/08 18:18:34;;;;;;;6.60;4.03;;;2.10;91.40;;;;;;4935460;29;20403;-78
2022/03/08 18:20:59;;;;;;;3.00;1.97;;;2.10;91.50;;;;;;4935714;29;20752;-78
2022/03/08 18:23:25;;;;;;;3.30;1.60;;;2.50;91.10;;;;;;4935815;29;20427;-78
2022/03/08 18:25:51;;;;;;;2.63;2.00;;;2.50;90.80;;;;;;4935789;29;20203;-78
2022/03/08 18:28:17;;;;;;;2.47;2.03;;;2.60;90.40;;;;;;4935415;29;20176;-80